sensor_id;sensor_type;location;lat;lon;timestamp;temperature;humidity
46758;DHT22;32509;47.750;-3.396;2024-02-28T19:59:49;11.20;99.90
46758;DHT22;32509;47.750;-3.396;2024-02-28T20:02:16;11.30;99.90
46758;DHT22;32509;47.750;-3.396;2024-02-28T20:04:43;11.30;99.90
46758;DHT22;32509;47.750;-3.396;2024-02-28T20:07:09;11.40;99.90
46758;DHT22;32509;47.750;-3.396;2024-02-28T20:09:35;11.50;99.90
46758;DHT22;32509;47.750;-3.396;2024-02-28T20:12:02;11.60;99.90
46758;DHT22;32509;47.750;-3.396;2024-02-28T20:14:33;11.70;99.90
46758;DHT22;32509;47.750;-3.396;2024-02-28T20:17:02;11.70;99.90
46758;DHT22;32509;47.750;-3.396;2024-02-28T20:19:30;11.80;99.90
46758;DHT22;32509;47.750;-3.396;2024-02-28T20:21:56;11.90;99.90
46758;DHT22;32509;47.750;-3.396;2024-02-28T20:24:22;11.90;99.90
46758;DHT22;32509;47.750;-3.396;2024-02-28T20:26:47;11.90;99.90
46758;DHT22;32509;47.750;-3.396;2024-02-28T20:29:13;11.90;99.90
46758;DHT22;32509;47.750;-3.396;2024-02-28T20:31:39;11.90;99.90
46758;DHT22;32509;47.750;-3.396;2024-02-28T20:34:05;12.00;99.90
46758;DHT22;32509;47.750;-3.396;2024-02-28T20:36:30;12.00;99.90
46758;DHT22;32509;47.750;-3.396;2024-02-28T20:38:56;12.00;99.90
46758;DHT22;32509;47.750;-3.396;2024-02-28T20:41:23;12.00;99.90
46758;DHT22;32509;47.750;-3.396;2024-02-28T20:43:50;12.00;99.90
46758;DHT22;32509;47.750;-3.396;2024-02-28T20:46:17;12.00;99.90
46758;DHT22;32509;47.750;-3.396;2024-02-28T20:48:46;12.00;99.90
46758;DHT22;32509;47.750;-3.396;2024-02-28T20:51:13;12.00;99.90
46758;DHT22;32509;47.750;-3.396;2024-02-28T20:53:39;12.00;99.90
46758;DHT22;32509;47.750;-3.396;2024-02-28T20:56:07;12.00;99.90
46758;DHT22;32509;47.750;-3.396;2024-02-28T20:58:34;12.00;99.90
46758;DHT22;32509;47.750;-3.396;2024-02-28T21:01:00;12.00;99.90
46758;DHT22;32509;47.750;-3.396;2024-02-28T21:03:27;12.00;99.90
46758;DHT22;32509;47.750;-3.396;2024-02-28T21:05:53;12.10;99.90
46758;DHT22;32509;47.750;-3.396;2024-02-28T21:08:18;12.00;99.90
46758;DHT22;32509;47.750;-3.396;2024-02-28T21:10:44;12.00;99.90
46758;DHT22;32509;47.750;-3.396;2024-02-28T21:13:10;12.10;99.90
46758;DHT22;32509;47.750;-3.396;2024-02-28T21:15:37;12.10;99.90
46758;DHT22;32509;47.750;-3.396;2024-02-28T21:18:03;12.00;99.90
46758;DHT22;32509;47.750;-3.396;2024-02-28T21:20:29;12.10;99.90
46758;DHT22;32509;47.750;-3.396;2024-02-28T21:22:55;12.10;99.90
46758;DHT22;32509;47.750;-3.396;2024-02-28T21:25:21;12.10;99.90
46758;DHT22;32509;47.750;-3.396;2024-02-28T21:27:46;12.00;99.90
46758;DHT22;32509;47.750;-3.396;2024-02-28T21:30:12;12.10;99.90
46758;DHT22;32509;47.750;-3.396;2024-02-28T21:32:40;12.00;99.90
46758;DHT22;32509;47.750;-3.396;2024-02-28T21:35:07;12.10;99.90
46758;DHT22;32509;47.750;-3.396;2024-02-28T21:37:36;12.00;99.90
46758;DHT22;32509;47.750;-3.396;2024-02-28T21:40:03;12.00;99.90
46758;DHT22;32509;47.750;-3.396;2024-02-28T21:42:29;12.00;99.90
46758;DHT22;32509;47.750;-3.396;2024-02-28T21:44:54;12.00;99.90
46758;DHT22;32509;47.750;-3.396;2024-02-28T21:47:20;12.00;99.90
46758;DHT22;32509;47.750;-3.396;2024-02-28T21:49:46;12.10;99.90
46758;DHT22;32509;47.750;-3.396;2024-02-28T21:52:12;12.00;99.90
46758;DHT22;32509;47.750;-3.396;2024-02-28T21:54:41;12.00;99.90
46758;DHT22;32509;47.750;-3.396;2024-02-28T21:57:07;12.00;99.90
46758;DHT22;32509;47.750;-3.396;2024-02-28T21:59:33;12.00;99.90
46758;DHT22;32509;47.750;-3.396;2024-02-28T22:02:00;12.00;99.90
46758;DHT22;32509;47.750;-3.396;2024-02-28T22:04:26;12.00;99.90
46758;DHT22;32509;47.750;-3.396;2024-02-28T22:06:52;12.00;99.90
46758;DHT22;32509;47.750;-3.396;2024-02-28T22:09:18;12.00;99.90
46758;DHT22;32509;47.750;-3.396;2024-02-28T22:11:44;12.00;99.90
46758;DHT22;32509;47.750;-3.396;2024-02-28T22:14:10;12.00;99.90
46758;DHT22;32509;47.750;-3.396;2024-02-28T22:16:38;12.00;99.90
46758;DHT22;32509;47.750;-3.396;2024-02-28T22:19:04;12.00;99.90
46758;DHT22;32509;47.750;-3.396;2024-02-28T22:21:30;12.00;99.90
46758;DHT22;32509;47.750;-3.396;2024-02-28T22:23:56;12.00;99.90
46758;DHT22;32509;47.750;-3.396;2024-02-28T22:26:22;12.00;99.90
46758;DHT22;32509;47.750;-3.396;2024-02-28T22:28:48;12.00;99.90
46758;DHT22;32509;47.750;-3.396;2024-02-28T22:31:14;12.00;99.90
46758;DHT22;32509;47.750;-3.396;2024-02-28T22:33:40;12.00;99.90
46758;DHT22;32509;47.750;-3.396;2024-02-28T22:36:11;12.00;99.90
46758;DHT22;32509;47.750;-3.396;2024-02-28T22:38:37;12.00;99.90
46758;DHT22;32509;47.750;-3.396;2024-02-28T22:41:04;12.00;99.90
46758;DHT22;32509;47.750;-3.396;2024-02-28T22:43:30;12.00;99.90
46758;DHT22;32509;47.750;-3.396;2024-02-28T22:45:55;12.00;99.90
46758;DHT22;32509;47.750;-3.396;2024-02-28T22:48:21;12.00;99.90
46758;DHT22;32509;47.750;-3.396;2024-02-28T22:50:47;12.00;99.90
46758;DHT22;32509;47.750;-3.396;2024-02-28T22:53:13;12.00;99.90
46758;DHT22;32509;47.750;-3.396;2024-02-28T22:55:38;12.00;99.90
46758;DHT22;32509;47.750;-3.396;2024-02-28T22:58:04;12.00;99.90
46758;DHT22;32509;47.750;-3.396;2024-02-28T23:00:30;12.00;99.90
46758;DHT22;32509;47.750;-3.396;2024-02-28T23:03:01;12.00;99.90
46758;DHT22;32509;47.750;-3.396;2024-02-28T23:05:27;12.00;99.90
46758;DHT22;32509;47.750;-3.396;2024-02-28T23:07:54;12.00;99.90
46758;DHT22;32509;47.750;-3.396;2024-02-28T23:10:20;12.00;99.90
46758;DHT22;32509;47.750;-3.396;2024-02-28T23:12:53;12.00;99.90
46758;DHT22;32509;47.750;-3.396;2024-02-28T23:15:19;12.00;99.90
46758;DHT22;32509;47.750;-3.396;2024-02-28T23:17:46;12.00;99.90
46758;DHT22;32509;47.750;-3.396;2024-02-28T23:20:22;11.90;99.90
46758;DHT22;32509;47.750;-3.396;2024-02-28T23:22:49;11.90;99.90
46758;DHT22;32509;47.750;-3.396;2024-02-28T23:25:16;11.90;99.90
46758;DHT22;32509;47.750;-3.396;2024-02-28T23:27:42;11.90;99.90
46758;DHT22;32509;47.750;-3.396;2024-02-28T23:30:09;11.90;99.90
46758;DHT22;32509;47.750;-3.396;2024-02-28T23:32:35;11.90;99.90
46758;DHT22;32509;47.750;-3.396;2024-02-28T23:35:01;11.90;99.90
46758;DHT22;32509;47.750;-3.396;2024-02-28T23:37:29;11.90;99.90
46758;DHT22;32509;47.750;-3.396;2024-02-28T23:39:54;11.90;99.90
46758;DHT22;32509;47.750;-3.396;2024-02-28T23:42:20;11.90;99.90
46758;DHT22;32509;47.750;-3.396;2024-02-28T23:44:46;11.90;99.90
46758;DHT22;32509;47.750;-3.396;2024-02-28T23:47:12;11.90;99.90
46758;DHT22;32509;47.750;-3.396;2024-02-28T23:49:38;11.90;99.90
46758;DHT22;32509;47.750;-3.396;2024-02-28T23:52:04;11.90;99.90
46758;DHT22;32509;47.750;-3.396;2024-02-28T23:54:29;11.90;99.90
46758;DHT22;32509;47.750;-3.396;2024-02-28T23:56:55;11.90;99.90
46758;DHT22;32509;47.750;-3.396;2024-02-28T23:59:21;11.90;99.90
